logo dgac
Martes 16 de Julio del 2019
Buscar por aerodromo o helipuerto
Ingrese nombre de aeródromo, localidad o designador OACI:
TAF: TAF SCTB 161936Z 1620/1624 04002KT 5000 HZ NSC TX18/1620Z TN02/ 1612Z TEMPO 1621/1623 7000 NSC
TAF del 16/07/2019 a las 19:36 UTC
Período de validez: desde el 16 a las 20:00 UTC hasta el 16 a las 24:00 UTC
Viento: dirección 040 grados, velocidad 2 nudos
Visibilidad: 5000 metros
Bruma
Sin nubes bajo los 5000 pies o bajo del MSA (Mínimo de Seguridad del Aeródromo)
Temperatura máxima: 18ºC el 16 a las 20:00 UTC
Nan: TN02/
Nan: 1612Z
Se espera en forma temporal entre las 21:00 UTC del 16 y las 23:00 UTC del 16:
Visibilidad: 7000 metros
Sin nubes bajo los 5000 pies o bajo del MSA (Mínimo de Seguridad del Aeródromo)